Portada
METAR-TAF:

METAR-TAF

Aeropuertos :

Aeropuerto Internacional de Ginebra

Ginebra, Suiza

latitud: 46-15N, longitud: 006-08E, altitud: 420 m

Observación

El informe se hizo hace 7 minutos, a las 00:50 UTC
Viento 1 kt con dirección variable
Temperatura 5°C
Humedad 87%
Presión 1023 hPa
Visibilidad 10 km o más
Cielo cubierto a una altura de 1400 ft

METAR: LSGG 170050Z AUTO VRB01KT 9999 OVC014 05/03 Q1023 NOSIG

Hora: 01:57 (00:57 UTC)

Pronóstico

El informe se hizo hace 1 hora y 32 minutos, a las 23:25 UTC
Pronóstico válido del 17 a las 00 UTC al 18 a las 06 UTC
Viento 6 kt del norte-noreste
Visibilidad: 9000 m
Cielo nuboso a una altura de 1400 ft

TAF: LSGG 162325Z 1700/1806 02006KT 9000 BKN014 TX06/1715Z TN05/1706Z TN02/1806Z

Observaciones y pronósticos meteorológicos de más de 4000 aeropuertos (mensajes METAR y TAF).

Los puntos amarillos y rojos representan las estaciones disponibles.

Ponga el ratón en el punto deseado para ver el nombre de la estación.

Haga clic para ver las observaciones y los pronósticos meteorológicos.

Para cambiar el mapa : haga clic en los botones verdes con una cruz de color negro para hacer un zoom, en el botón verde con un guión para alejar o en las flechas verdes para mapas adyacentes.


METAR-TAF: